UAE47V OMDB-EDDF
Flight info
| Callsign | UAE47V |
|---|---|
| Flight time | N/A |
| Altitude | 35000 |
| Route | ANVIX L223 TARDI N629 BOTAM Y855 LAKLU/N0494F340 Q204 NALKI G652 TOKRA DCT ALROK DCT BOSOB DCT ITRUX Y511 NALBA/N0500F360 Y511 PMA Z712 WEJ L677 GESON Q777 RASDA DCT OTHON DCT VAXOS DCT RDS UL609 IKARO/N0481F380 UL609 MES DCT EVIVI DCT OKANA DCT BABIT DCT ARSIN DCT SUBEN T161 DEBHI DEBHI1A |
| Aircraft | A388/J-SADE2E3FGHIJ3J4J5M1RWXY/LB1D1 |
Departure
| Time | 2026-04-25 13:58 |
|---|---|
| Airport | Dubai International Airport (OMDB) |
Arrival
| Time | N/A |
|---|---|
| Airport | Frankfurt Main Airport (EDDF) |
| Time | Latitude | Longitude | Altitude | Speed | Heading |
|---|---|---|---|---|---|
| 2026-04-25 13:31 | 25.24436 | 55.37222 | 30 ft | 0 kts | 211° |
| 2026-04-25 13:31 | 25.24432 | 55.37220 | 19 ft | 0 kts | 211° |
| 2026-04-25 13:35 | 25.24433 | 55.37220 | 19 ft | 0 kts | 211° |
| 2026-04-25 13:46 | 25.24432 | 55.37220 | 26 ft | 0 kts | 211° |
| 2026-04-25 13:48 | 25.24433 | 55.37220 | 32 ft | 1 kts | 211° |
| 2026-04-25 13:48 | 25.24454 | 55.37234 | 29 ft | 4 kts | 211° |
| 2026-04-25 13:48 | 25.24475 | 55.37249 | 32 ft | 2 kts | 211° |
| 2026-04-25 13:48 | 25.24496 | 55.37260 | 32 ft | 4 kts | 186° |
| 2026-04-25 13:49 | 25.24520 | 55.37255 | 32 ft | 4 kts | 139° |
| 2026-04-25 13:49 | 25.24535 | 55.37234 | 30 ft | 4 kts | 122° |
| 2026-04-25 13:49 | 25.24550 | 55.37208 | 32 ft | 4 kts | 122° |
| 2026-04-25 13:49 | 25.24553 | 55.37202 | 32 ft | 0 kts | 122° |
| 2026-04-25 13:50 | 25.24554 | 55.37202 | 32 ft | 0 kts | 122° |
| 2026-04-25 13:53 | 25.24541 | 55.37224 | 32 ft | 10 kts | 122° |
| 2026-04-25 13:53 | 25.24489 | 55.37317 | 29 ft | 19 kts | 122° |
| 2026-04-25 13:53 | 25.24408 | 55.37460 | 31 ft | 20 kts | 122° |
| 2026-04-25 13:53 | 25.24322 | 55.37611 | 29 ft | 26 kts | 122° |
| 2026-04-25 13:54 | 25.24241 | 55.37757 | 28 ft | 5 kts | 121° |
| 2026-04-25 13:54 | 25.24237 | 55.37783 | 26 ft | 4 kts | 43° |
| 2026-04-25 13:54 | 25.24283 | 55.37798 | 26 ft | 13 kts | 18° |
| 2026-04-25 13:54 | 25.24353 | 55.37834 | 27 ft | 0 kts | 29° |
| 2026-04-25 13:55 | 25.24402 | 55.37871 | 28 ft | 15 kts | 36° |
| 2026-04-25 13:55 | 25.24512 | 55.37958 | 30 ft | 23 kts | 35° |
| 2026-04-25 13:55 | 25.24592 | 55.38019 | 28 ft | 9 kts | 33° |
| 2026-04-25 13:56 | 25.24619 | 55.38038 | 28 ft | 4 kts | 32° |
| 2026-04-25 13:56 | 25.24664 | 55.38069 | 29 ft | 12 kts | 32° |
| 2026-04-25 13:56 | 25.24734 | 55.38116 | 31 ft | 6 kts | 16° |
| 2026-04-25 13:56 | 25.24762 | 55.38105 | 31 ft | 6 kts | 307° |
| 2026-04-25 13:57 | 25.24774 | 55.38083 | 31 ft | 0 kts | 302° |
| 2026-04-25 13:57 | 25.24879 | 55.37892 | 31 ft | 67 kts | 300° |
| 2026-04-25 13:57 | 25.25250 | 55.37224 | 32 ft | 132 kts | 301° |
| 2026-04-25 13:58 | 25.25807 | 55.36233 | 132 ft | 164 kts | 302° |
| 2026-04-25 13:58 | 25.26416 | 55.35140 | 560 ft | 170 kts | 303° |
| 2026-04-25 13:58 | 25.27039 | 55.34021 | 934 ft | 172 kts | 302° |
| 2026-04-25 13:58 | 25.27665 | 55.32891 | 1337 ft | 174 kts | 302° |
| 2026-04-25 13:59 | 25.28298 | 55.31747 | 1732 ft | 175 kts | 303° |
| 2026-04-25 13:59 | 25.28930 | 55.30606 | 2146 ft | 174 kts | 302° |
| 2026-04-25 13:59 | 25.29337 | 55.29338 | 2459 ft | 181 kts | 271° |
| 2026-04-25 13:59 | 25.28976 | 55.27997 | 2846 ft | 186 kts | 245° |
| 2026-04-25 14:00 | 25.28580 | 55.27156 | 3137 ft | 186 kts | 246° |
| 2026-04-25 14:00 | 25.27796 | 55.25357 | 3355 ft | 203 kts | 247° |
| 2026-04-25 14:00 | 25.27190 | 55.23923 | 3569 ft | 207 kts | 247° |
| 2026-04-25 14:00 | 25.26591 | 55.22502 | 3808 ft | 206 kts | 246° |
| 2026-04-25 14:01 | 25.25987 | 55.21075 | 4000 ft | 206 kts | 247° |
| 2026-04-25 14:01 | 25.25370 | 55.19618 | 4060 ft | 212 kts | 246° |
| 2026-04-25 14:01 | 25.24694 | 55.18124 | 4082 ft | 223 kts | 237° |
| 2026-04-25 14:01 | 25.23494 | 55.16990 | 4155 ft | 236 kts | 205° |
| 2026-04-25 14:02 | 25.21815 | 55.16690 | 4425 ft | 253 kts | 176° |
| 2026-04-25 14:02 | 25.20034 | 55.16885 | 5008 ft | 261 kts | 170° |
| 2026-04-25 14:02 | 25.18390 | 55.17706 | 5705 ft | 264 kts | 141° |
| 2026-04-25 14:02 | 25.17934 | 55.18173 | 5933 ft | 266 kts | 133° |
| 2026-04-25 14:03 | 25.16333 | 55.21194 | 6607 ft | 289 kts | 116° |
| 2026-04-25 14:03 | 25.15449 | 55.23216 | 7132 ft | 295 kts | 117° |